sensor_id;sensor_type;location;lat;lon;timestamp;P1;durP1;ratioP1;P2;durP2;ratioP2
25567;SDS011;13455;51.480;7.594;2022-10-16T00:00:33;6.68;;;3.58;;
25567;SDS011;13455;51.480;7.594;2022-10-16T00:03:03;8.90;;;3.67;;
25567;SDS011;13455;51.480;7.594;2022-10-16T00:05:31;7.63;;;3.83;;
25567;SDS011;13455;51.480;7.594;2022-10-16T00:07:58;7.93;;;3.65;;
25567;SDS011;13455;51.480;7.594;2022-10-16T00:10:24;11.33;;;3.70;;
25567;SDS011;13455;51.480;7.594;2022-10-16T00:12:50;7.47;;;3.50;;
25567;SDS011;13455;51.480;7.594;2022-10-16T00:15:16;8.65;;;3.50;;
25567;SDS011;13455;51.480;7.594;2022-10-16T00:17:42;5.55;;;3.30;;
25567;SDS011;13455;51.480;7.594;2022-10-16T00:20:08;7.50;;;3.78;;
25567;SDS011;13455;51.480;7.594;2022-10-16T00:22:34;7.20;;;3.40;;
25567;SDS011;13455;51.480;7.594;2022-10-16T00:25:00;7.38;;;3.53;;
25567;SDS011;13455;51.480;7.594;2022-10-16T00:27:26;7.90;;;3.30;;
25567;SDS011;13455;51.480;7.594;2022-10-16T00:29:52;5.78;;;3.25;;
25567;SDS011;13455;51.480;7.594;2022-10-16T00:32:19;6.53;;;3.50;;
25567;SDS011;13455;51.480;7.594;2022-10-16T00:34:45;8.87;;;3.67;;
25567;SDS011;13455;51.480;7.594;2022-10-16T00:37:11;6.75;;;3.20;;
25567;SDS011;13455;51.480;7.594;2022-10-16T00:39:38;7.25;;;3.63;;
25567;SDS011;13455;51.480;7.594;2022-10-16T00:42:04;6.28;;;3.03;;
25567;SDS011;13455;51.480;7.594;2022-10-16T00:47:17;7.82;;;3.15;;
25567;SDS011;13455;51.480;7.594;2022-10-16T00:49:44;7.82;;;3.25;;
25567;SDS011;13455;51.480;7.594;2022-10-16T00:52:11;6.53;;;3.03;;
25567;SDS011;13455;51.480;7.594;2022-10-16T00:54:37;7.53;;;3.30;;
25567;SDS011;13455;51.480;7.594;2022-10-16T00:57:04;7.20;;;3.53;;
25567;SDS011;13455;51.480;7.594;2022-10-16T00:59:32;7.47;;;3.08;;
25567;SDS011;13455;51.480;7.594;2022-10-16T01:02:00;7.67;;;3.23;;
25567;SDS011;13455;51.480;7.594;2022-10-16T01:04:26;5.10;;;2.90;;
25567;SDS011;13455;51.480;7.594;2022-10-16T01:14:40;4.73;;;2.70;;
25567;SDS011;13455;51.480;7.594;2022-10-16T01:17:08;5.57;;;2.63;;
25567;SDS011;13455;51.480;7.594;2022-10-16T01:22:03;6.23;;;2.80;;
25567;SDS011;13455;51.480;7.594;2022-10-16T01:24:37;5.75;;;2.67;;
25567;SDS011;13455;51.480;7.594;2022-10-16T01:32:08;5.90;;;2.50;;
25567;SDS011;13455;51.480;7.594;2022-10-16T01:34:42;7.20;;;2.60;;
25567;SDS011;13455;51.480;7.594;2022-10-16T01:37:12;5.03;;;2.65;;
25567;SDS011;13455;51.480;7.594;2022-10-16T01:39:40;6.65;;;2.63;;
25567;SDS011;13455;51.480;7.594;2022-10-16T01:42:09;5.97;;;2.47;;
25567;SDS011;13455;51.480;7.594;2022-10-16T01:44:37;4.78;;;2.20;;
25567;SDS011;13455;51.480;7.594;2022-10-16T01:47:04;5.05;;;2.70;;
25567;SDS011;13455;51.480;7.594;2022-10-16T01:49:32;5.93;;;2.63;;
25567;SDS011;13455;51.480;7.594;2022-10-16T01:51:59;6.97;;;2.50;;
25567;SDS011;13455;51.480;7.594;2022-10-16T01:54:26;5.32;;;2.10;;
25567;SDS011;13455;51.480;7.594;2022-10-16T01:56:53;4.45;;;2.08;;
25567;SDS011;13455;51.480;7.594;2022-10-16T01:59:21;5.13;;;1.90;;
25567;SDS011;13455;51.480;7.594;2022-10-16T02:01:50;3.90;;;1.80;;
25567;SDS011;13455;51.480;7.594;2022-10-16T02:06:47;5.77;;;2.00;;
25567;SDS011;13455;51.480;7.594;2022-10-16T02:09:13;4.95;;;1.85;;
25567;SDS011;13455;51.480;7.594;2022-10-16T02:11:41;4.00;;;1.83;;
25567;SDS011;13455;51.480;7.594;2022-10-16T02:14:07;5.03;;;2.00;;
25567;SDS011;13455;51.480;7.594;2022-10-16T02:16:34;4.68;;;2.10;;
25567;SDS011;13455;51.480;7.594;2022-10-16T02:19:01;6.53;;;2.20;;
25567;SDS011;13455;51.480;7.594;2022-10-16T02:29:05;4.25;;;2.05;;
25567;SDS011;13455;51.480;7.594;2022-10-16T02:31:33;3.53;;;2.13;;
25567;SDS011;13455;51.480;7.594;2022-10-16T02:34:00;6.43;;;2.00;;
25567;SDS011;13455;51.480;7.594;2022-10-16T02:36:29;4.57;;;2.00;;
25567;SDS011;13455;51.480;7.594;2022-10-16T02:38:56;4.78;;;1.80;;
25567;SDS011;13455;51.480;7.594;2022-10-16T02:41:22;4.65;;;2.00;;
25567;SDS011;13455;51.480;7.594;2022-10-16T02:43:48;5.30;;;1.85;;
25567;SDS011;13455;51.480;7.594;2022-10-16T02:46:14;4.93;;;1.85;;
25567;SDS011;13455;51.480;7.594;2022-10-16T02:48:40;5.88;;;1.95;;
25567;SDS011;13455;51.480;7.594;2022-10-16T02:51:07;3.97;;;1.90;;
25567;SDS011;13455;51.480;7.594;2022-10-16T02:53:32;3.70;;;1.80;;
25567;SDS011;13455;51.480;7.594;2022-10-16T02:55:58;4.38;;;1.83;;
25567;SDS011;13455;51.480;7.594;2022-10-16T02:58:24;4.68;;;1.90;;
25567;SDS011;13455;51.480;7.594;2022-10-16T03:00:50;6.65;;;1.80;;
25567;SDS011;13455;51.480;7.594;2022-10-16T03:03:16;4.18;;;1.80;;
25567;SDS011;13455;51.480;7.594;2022-10-16T03:05:43;4.33;;;1.80;;
25567;SDS011;13455;51.480;7.594;2022-10-16T03:08:10;4.10;;;1.58;;
25567;SDS011;13455;51.480;7.594;2022-10-16T03:10:36;3.50;;;1.60;;
25567;SDS011;13455;51.480;7.594;2022-10-16T03:13:02;3.60;;;1.70;;
25567;SDS011;13455;51.480;7.594;2022-10-16T03:15:28;3.85;;;1.60;;
25567;SDS011;13455;51.480;7.594;2022-10-16T03:17:57;3.20;;;1.70;;
25567;SDS011;13455;51.480;7.594;2022-10-16T03:20:23;4.75;;;1.70;;
25567;SDS011;13455;51.480;7.594;2022-10-16T03:22:49;3.47;;;2.00;;
25567;SDS011;13455;51.480;7.594;2022-10-16T03:25:15;3.43;;;1.70;;
25567;SDS011;13455;51.480;7.594;2022-10-16T03:27:41;4.53;;;1.80;;
25567;SDS011;13455;51.480;7.594;2022-10-16T03:30:07;3.95;;;1.90;;
25567;SDS011;13455;51.480;7.594;2022-10-16T03:32:34;3.75;;;1.58;;
25567;SDS011;13455;51.480;7.594;2022-10-16T03:35:00;4.38;;;1.70;;
25567;SDS011;13455;51.480;7.594;2022-10-16T03:37:26;7.70;;;1.70;;
25567;SDS011;13455;51.480;7.594;2022-10-16T03:39:52;4.93;;;1.70;;
25567;SDS011;13455;51.480;7.594;2022-10-16T03:42:18;3.83;;;1.65;;
25567;SDS011;13455;51.480;7.594;2022-10-16T03:44:44;3.92;;;1.70;;
25567;SDS011;13455;51.480;7.594;2022-10-16T03:47:10;2.83;;;1.40;;
25567;SDS011;13455;51.480;7.594;2022-10-16T03:49:36;3.78;;;1.50;;
25567;SDS011;13455;51.480;7.594;2022-10-16T03:52:02;3.22;;;1.50;;
25567;SDS011;13455;51.480;7.594;2022-10-16T03:54:28;3.88;;;1.40;;
25567;SDS011;13455;51.480;7.594;2022-10-16T03:56:54;3.50;;;1.60;;
25567;SDS011;13455;51.480;7.594;2022-10-16T03:59:19;3.28;;;1.50;;
25567;SDS011;13455;51.480;7.594;2022-10-16T04:01:45;2.80;;;1.50;;
25567;SDS011;13455;51.480;7.594;2022-10-16T04:04:11;3.22;;;1.50;;
25567;SDS011;13455;51.480;7.594;2022-10-16T04:06:37;5.00;;;1.60;;
25567;SDS011;13455;51.480;7.594;2022-10-16T04:09:03;4.20;;;1.60;;
25567;SDS011;13455;51.480;7.594;2022-10-16T04:11:29;3.38;;;1.48;;
25567;SDS011;13455;51.480;7.594;2022-10-16T04:13:55;2.35;;;1.30;;
25567;SDS011;13455;51.480;7.594;2022-10-16T04:16:21;3.53;;;1.42;;
25567;SDS011;13455;51.480;7.594;2022-10-16T04:18:47;3.90;;;1.40;;
25567;SDS011;13455;51.480;7.594;2022-10-16T04:21:13;4.07;;;1.50;;
25567;SDS011;13455;51.480;7.594;2022-10-16T04:23:39;3.08;;;1.50;;
25567;SDS011;13455;51.480;7.594;2022-10-16T04:26:05;4.70;;;1.20;;
25567;SDS011;13455;51.480;7.594;2022-10-16T04:28:31;3.63;;;1.50;;
25567;SDS011;13455;51.480;7.594;2022-10-16T04:30:57;3.33;;;1.40;;
25567;SDS011;13455;51.480;7.594;2022-10-16T04:33:23;3.53;;;1.50;;
25567;SDS011;13455;51.480;7.594;2022-10-16T04:35:55;4.13;;;1.33;;
25567;SDS011;13455;51.480;7.594;2022-10-16T04:38:21;2.03;;;1.20;;
25567;SDS011;13455;51.480;7.594;2022-10-16T04:40:47;2.10;;;1.20;;
25567;SDS011;13455;51.480;7.594;2022-10-16T04:43:13;4.68;;;1.33;;
25567;SDS011;13455;51.480;7.594;2022-10-16T04:45:39;2.85;;;1.30;;
25567;SDS011;13455;51.480;7.594;2022-10-16T04:48:05;4.33;;;1.30;;
25567;SDS011;13455;51.480;7.594;2022-10-16T04:50:31;2.60;;;1.20;;
25567;SDS011;13455;51.480;7.594;2022-10-16T04:52:57;2.45;;;1.25;;
25567;SDS011;13455;51.480;7.594;2022-10-16T04:55:23;2.90;;;1.40;;
25567;SDS011;13455;51.480;7.594;2022-10-16T04:57:49;3.50;;;1.40;;
25567;SDS011;13455;51.480;7.594;2022-10-16T05:00:15;4.32;;;1.20;;
25567;SDS011;13455;51.480;7.594;2022-10-16T05:02:41;3.80;;;1.20;;
25567;SDS011;13455;51.480;7.594;2022-10-16T05:05:07;2.15;;;1.20;;
25567;SDS011;13455;51.480;7.594;2022-10-16T05:07:33;3.47;;;1.40;;
25567;SDS011;13455;51.480;7.594;2022-10-16T05:09:59;2.42;;;1.50;;
25567;SDS011;13455;51.480;7.594;2022-10-16T05:12:25;3.22;;;1.80;;
25567;SDS011;13455;51.480;7.594;2022-10-16T05:14:51;4.27;;;1.60;;
25567;SDS011;13455;51.480;7.594;2022-10-16T05:17:17;4.47;;;1.70;;
25567;SDS011;13455;51.480;7.594;2022-10-16T05:19:43;4.65;;;1.50;;
25567;SDS011;13455;51.480;7.594;2022-10-16T05:22:09;2.78;;;1.30;;
25567;SDS011;13455;51.480;7.594;2022-10-16T05:24:35;2.50;;;1.20;;
25567;SDS011;13455;51.480;7.594;2022-10-16T05:27:01;2.20;;;1.10;;
25567;SDS011;13455;51.480;7.594;2022-10-16T05:29:27;3.55;;;1.30;;
25567;SDS011;13455;51.480;7.594;2022-10-16T05:31:53;3.10;;;1.20;;
25567;SDS011;13455;51.480;7.594;2022-10-16T05:34:19;4.60;;;1.40;;
25567;SDS011;13455;51.480;7.594;2022-10-16T05:36:45;3.17;;;1.10;;
25567;SDS011;13455;51.480;7.594;2022-10-16T05:39:12;2.60;;;1.30;;
25567;SDS011;13455;51.480;7.594;2022-10-16T05:41:39;3.92;;;1.30;;
25567;SDS011;13455;51.480;7.594;2022-10-16T05:44:05;3.63;;;1.10;;
25567;SDS011;13455;51.480;7.594;2022-10-16T05:46:32;2.33;;;1.10;;
25567;SDS011;13455;51.480;7.594;2022-10-16T05:48:58;4.70;;;1.20;;
25567;SDS011;13455;51.480;7.594;2022-10-16T05:51:24;2.70;;;1.17;;
25567;SDS011;13455;51.480;7.594;2022-10-16T05:53:50;3.15;;;1.30;;
25567;SDS011;13455;51.480;7.594;2022-10-16T05:56:16;4.38;;;1.40;;
25567;SDS011;13455;51.480;7.594;2022-10-16T05:58:42;4.47;;;1.52;;
25567;SDS011;13455;51.480;7.594;2022-10-16T06:01:13;3.20;;;1.45;;
25567;SDS011;13455;51.480;7.594;2022-10-16T06:03:40;3.85;;;1.52;;
25567;SDS011;13455;51.480;7.594;2022-10-16T06:08:34;3.70;;;1.53;;
25567;SDS011;13455;51.480;7.594;2022-10-16T06:11:02;4.03;;;1.70;;
25567;SDS011;13455;51.480;7.594;2022-10-16T06:13:28;3.92;;;1.60;;
25567;SDS011;13455;51.480;7.594;2022-10-16T06:15:56;3.10;;;1.40;;
25567;SDS011;13455;51.480;7.594;2022-10-16T06:18:22;2.85;;;1.45;;
25567;SDS011;13455;51.480;7.594;2022-10-16T06:20:48;2.45;;;1.42;;
25567;SDS011;13455;51.480;7.594;2022-10-16T06:23:14;3.70;;;1.40;;
25567;SDS011;13455;51.480;7.594;2022-10-16T06:25:40;3.45;;;1.30;;
25567;SDS011;13455;51.480;7.594;2022-10-16T06:28:06;3.28;;;1.20;;
25567;SDS011;13455;51.480;7.594;2022-10-16T06:30:32;2.43;;;1.30;;
25567;SDS011;13455;51.480;7.594;2022-10-16T06:32:58;1.95;;;1.20;;
25567;SDS011;13455;51.480;7.594;2022-10-16T06:35:24;3.72;;;1.40;;
25567;SDS011;13455;51.480;7.594;2022-10-16T06:37:50;3.13;;;1.30;;
25567;SDS011;13455;51.480;7.594;2022-10-16T06:40:16;5.47;;;1.20;;
25567;SDS011;13455;51.480;7.594;2022-10-16T06:42:42;2.45;;;1.40;;
25567;SDS011;13455;51.480;7.594;2022-10-16T06:45:08;3.67;;;1.13;;
25567;SDS011;13455;51.480;7.594;2022-10-16T06:47:34;1.97;;;1.10;;
25567;SDS011;13455;51.480;7.594;2022-10-16T06:50:00;3.55;;;1.30;;
25567;SDS011;13455;51.480;7.594;2022-10-16T06:52:29;2.45;;;1.15;;
25567;SDS011;13455;51.480;7.594;2022-10-16T06:54:55;2.53;;;1.10;;
25567;SDS011;13455;51.480;7.594;2022-10-16T06:57:21;2.67;;;1.20;;
25567;SDS011;13455;51.480;7.594;2022-10-16T06:59:47;3.25;;;1.20;;
25567;SDS011;13455;51.480;7.594;2022-10-16T07:02:13;3.78;;;1.30;;
25567;SDS011;13455;51.480;7.594;2022-10-16T07:04:39;6.15;;;1.45;;
25567;SDS011;13455;51.480;7.594;2022-10-16T07:07:05;5.33;;;1.13;;
25567;SDS011;13455;51.480;7.594;2022-10-16T07:09:31;3.03;;;1.30;;
25567;SDS011;13455;51.480;7.594;2022-10-16T07:11:57;2.40;;;1.20;;
25567;SDS011;13455;51.480;7.594;2022-10-16T07:14:23;2.63;;;1.23;;
25567;SDS011;13455;51.480;7.594;2022-10-16T07:16:49;2.65;;;1.20;;
25567;SDS011;13455;51.480;7.594;2022-10-16T07:19:15;3.17;;;1.20;;
25567;SDS011;13455;51.480;7.594;2022-10-16T07:21:43;3.67;;;1.43;;
25567;SDS011;13455;51.480;7.594;2022-10-16T07:24:13;2.67;;;1.15;;
25567;SDS011;13455;51.480;7.594;2022-10-16T07:26:40;3.20;;;1.20;;
25567;SDS011;13455;51.480;7.594;2022-10-16T07:29:07;3.28;;;1.20;;
25567;SDS011;13455;51.480;7.594;2022-10-16T07:31:33;3.17;;;1.20;;
25567;SDS011;13455;51.480;7.594;2022-10-16T07:33:59;4.05;;;1.17;;
25567;SDS011;13455;51.480;7.594;2022-10-16T07:36:25;2.95;;;1.20;;
25567;SDS011;13455;51.480;7.594;2022-10-16T07:38:52;3.22;;;1.17;;
25567;SDS011;13455;51.480;7.594;2022-10-16T07:41:19;4.15;;;1.27;;
25567;SDS011;13455;51.480;7.594;2022-10-16T07:46:15;2.30;;;1.20;;
25567;SDS011;13455;51.480;7.594;2022-10-16T07:48:41;4.40;;;1.30;;
25567;SDS011;13455;51.480;7.594;2022-10-16T07:51:10;4.20;;;1.10;;
25567;SDS011;13455;51.480;7.594;2022-10-16T07:53:36;3.07;;;1.23;;
25567;SDS011;13455;51.480;7.594;2022-10-16T07:56:04;3.80;;;1.33;;
25567;SDS011;13455;51.480;7.594;2022-10-16T07:58:31;3.63;;;1.40;;
25567;SDS011;13455;51.480;7.594;2022-10-16T08:00:57;2.58;;;1.25;;
25567;SDS011;13455;51.480;7.594;2022-10-16T08:03:23;3.85;;;1.30;;
25567;SDS011;13455;51.480;7.594;2022-10-16T08:05:50;3.22;;;1.33;;
25567;SDS011;13455;51.480;7.594;2022-10-16T08:08:16;3.10;;;1.30;;
25567;SDS011;13455;51.480;7.594;2022-10-16T08:10:42;3.60;;;1.30;;
25567;SDS011;13455;51.480;7.594;2022-10-16T08:13:08;3.90;;;1.37;;
25567;SDS011;13455;51.480;7.594;2022-10-16T08:15:35;3.25;;;1.30;;
25567;SDS011;13455;51.480;7.594;2022-10-16T08:18:01;4.40;;;1.30;;
25567;SDS011;13455;51.480;7.594;2022-10-16T08:20:28;3.13;;;1.30;;
25567;SDS011;13455;51.480;7.594;2022-10-16T08:22:54;3.65;;;1.20;;
25567;SDS011;13455;51.480;7.594;2022-10-16T08:25:21;3.10;;;1.10;;
25567;SDS011;13455;51.480;7.594;2022-10-16T08:27:47;3.33;;;1.20;;
25567;SDS011;13455;51.480;7.594;2022-10-16T08:30:13;3.65;;;1.20;;
25567;SDS011;13455;51.480;7.594;2022-10-16T08:32:39;4.00;;;1.10;;
25567;SDS011;13455;51.480;7.594;2022-10-16T08:35:07;5.47;;;1.20;;
25567;SDS011;13455;51.480;7.594;2022-10-16T08:37:34;3.40;;;1.10;;
25567;SDS011;13455;51.480;7.594;2022-10-16T08:40:00;2.28;;;1.10;;
25567;SDS011;13455;51.480;7.594;2022-10-16T08:42:32;6.63;;;1.30;;
25567;SDS011;13455;51.480;7.594;2022-10-16T08:47:43;3.57;;;1.13;;
25567;SDS011;13455;51.480;7.594;2022-10-16T08:50:23;2.50;;;0.90;;
25567;SDS011;13455;51.480;7.594;2022-10-16T08:52:52;4.63;;;1.10;;
25567;SDS011;13455;51.480;7.594;2022-10-16T08:55:36;4.88;;;1.20;;
25567;SDS011;13455;51.480;7.594;2022-10-16T08:58:10;2.95;;;0.90;;
25567;SDS011;13455;51.480;7.594;2022-10-16T09:00:38;2.53;;;0.93;;
25567;SDS011;13455;51.480;7.594;2022-10-16T09:03:14;4.73;;;1.00;;
25567;SDS011;13455;51.480;7.594;2022-10-16T09:08:38;3.53;;;0.80;;
25567;SDS011;13455;51.480;7.594;2022-10-16T09:19:46;4.22;;;0.80;;
25567;SDS011;13455;51.480;7.594;2022-10-16T09:22:16;2.88;;;0.80;;
25567;SDS011;13455;51.480;7.594;2022-10-16T09:24:42;2.28;;;0.90;;
25567;SDS011;13455;51.480;7.594;2022-10-16T09:27:10;4.60;;;0.95;;
25567;SDS011;13455;51.480;7.594;2022-10-16T09:29:37;2.35;;;0.80;;
25567;SDS011;13455;51.480;7.594;2022-10-16T09:32:37;2.72;;;0.80;;
25567;SDS011;13455;51.480;7.594;2022-10-16T09:34:56;3.90;;;0.80;;
25567;SDS011;13455;51.480;7.594;2022-10-16T09:37:22;4.47;;;0.90;;
25567;SDS011;13455;51.480;7.594;2022-10-16T09:39:50;3.25;;;0.82;;
25567;SDS011;13455;51.480;7.594;2022-10-16T09:42:32;3.80;;;0.80;;
25567;SDS011;13455;51.480;7.594;2022-10-16T09:45:01;2.65;;;0.70;;
25567;SDS011;13455;51.480;7.594;2022-10-16T09:47:28;3.60;;;0.80;;
25567;SDS011;13455;51.480;7.594;2022-10-16T09:50:00;1.60;;;0.60;;
25567;SDS011;13455;51.480;7.594;2022-10-16T09:52:30;3.08;;;0.80;;
25567;SDS011;13455;51.480;7.594;2022-10-16T09:55:00;3.85;;;0.80;;
25567;SDS011;13455;51.480;7.594;2022-10-16T09:57:27;4.18;;;0.70;;
25567;SDS011;13455;51.480;7.594;2022-10-16T09:59:57;2.90;;;0.80;;
25567;SDS011;13455;51.480;7.594;2022-10-16T10:02:34;2.35;;;0.70;;
25567;SDS011;13455;51.480;7.594;2022-10-16T10:05:00;2.10;;;0.60;;
25567;SDS011;13455;51.480;7.594;2022-10-16T10:07:42;3.25;;;0.70;;
25567;SDS011;13455;51.480;7.594;2022-10-16T10:10:22;3.95;;;0.63;;
25567;SDS011;13455;51.480;7.594;2022-10-16T10:12:51;2.72;;;0.60;;
25567;SDS011;13455;51.480;7.594;2022-10-16T10:15:17;2.47;;;0.70;;
25567;SDS011;13455;51.480;7.594;2022-10-16T10:17:50;2.10;;;0.60;;
25567;SDS011;13455;51.480;7.594;2022-10-16T10:22:57;2.97;;;0.52;;
25567;SDS011;13455;51.480;7.594;2022-10-16T10:25:42;3.40;;;0.60;;
25567;SDS011;13455;51.480;7.594;2022-10-16T10:31:07;2.17;;;0.60;;
25567;SDS011;13455;51.480;7.594;2022-10-16T10:43:54;2.27;;;0.60;;
25567;SDS011;13455;51.480;7.594;2022-10-16T10:51:58;2.15;;;0.60;;
25567;SDS011;13455;51.480;7.594;2022-10-16T10:54:32;3.42;;;0.50;;
25567;SDS011;13455;51.480;7.594;2022-10-16T11:07:33;2.15;;;0.50;;
25567;SDS011;13455;51.480;7.594;2022-10-16T11:10:12;3.33;;;0.63;;
25567;SDS011;13455;51.480;7.594;2022-10-16T11:12:40;1.80;;;0.50;;
25567;SDS011;13455;51.480;7.594;2022-10-16T11:15:15;3.97;;;0.60;;
25567;SDS011;13455;51.480;7.594;2022-10-16T11:20:19;3.15;;;0.52;;
25567;SDS011;13455;51.480;7.594;2022-10-16T11:22:51;2.53;;;0.60;;
25567;SDS011;13455;51.480;7.594;2022-10-16T11:28:01;2.30;;;0.50;;
25567;SDS011;13455;51.480;7.594;2022-10-16T11:30:32;1.83;;;0.68;;
25567;SDS011;13455;51.480;7.594;2022-10-16T11:41:09;2.28;;;0.80;;
25567;SDS011;13455;51.480;7.594;2022-10-16T11:43:43;2.45;;;0.80;;
25567;SDS011;13455;51.480;7.594;2022-10-16T11:46:19;2.42;;;0.60;;
25567;SDS011;13455;51.480;7.594;2022-10-16T11:48:50;2.90;;;0.60;;
25567;SDS011;13455;51.480;7.594;2022-10-16T11:56:46;3.00;;;0.60;;
25567;SDS011;13455;51.480;7.594;2022-10-16T11:59:20;2.67;;;0.50;;
25567;SDS011;13455;51.480;7.594;2022-10-16T12:01:54;2.58;;;0.60;;
25567;SDS011;13455;51.480;7.594;2022-10-16T12:09:28;1.92;;;0.60;;
25567;SDS011;13455;51.480;7.594;2022-10-16T12:11:56;1.58;;;0.40;;
25567;SDS011;13455;51.480;7.594;2022-10-16T12:16:58;2.03;;;0.55;;
25567;SDS011;13455;51.480;7.594;2022-10-16T12:19:26;1.40;;;0.50;;
25567;SDS011;13455;51.480;7.594;2022-10-16T12:21:53;1.88;;;0.60;;
25567;SDS011;13455;51.480;7.594;2022-10-16T12:24:37;2.10;;;0.43;;
25567;SDS011;13455;51.480;7.594;2022-10-16T12:27:04;3.03;;;0.50;;
25567;SDS011;13455;51.480;7.594;2022-10-16T12:29:54;2.80;;;0.50;;
25567;SDS011;13455;51.480;7.594;2022-10-16T12:32:37;3.10;;;0.70;;
25567;SDS011;13455;51.480;7.594;2022-10-16T12:35:16;1.95;;;0.60;;
25567;SDS011;13455;51.480;7.594;2022-10-16T12:37:43;1.75;;;0.50;;
25567;SDS011;13455;51.480;7.594;2022-10-16T12:40:29;3.13;;;0.50;;
25567;SDS011;13455;51.480;7.594;2022-10-16T12:42:56;2.33;;;0.50;;
25567;SDS011;13455;51.480;7.594;2022-10-16T12:45:26;1.40;;;0.40;;
25567;SDS011;13455;51.480;7.594;2022-10-16T12:47:56;1.40;;;0.50;;
25567;SDS011;13455;51.480;7.594;2022-10-16T12:53:03;3.65;;;0.55;;
25567;SDS011;13455;51.480;7.594;2022-10-16T12:55:44;2.00;;;0.60;;
25567;SDS011;13455;51.480;7.594;2022-10-16T13:01:22;2.45;;;0.68;;
25567;SDS011;13455;51.480;7.594;2022-10-16T13:04:20;1.50;;;0.47;;
25567;SDS011;13455;51.480;7.594;2022-10-16T13:07:01;1.52;;;0.50;;
25567;SDS011;13455;51.480;7.594;2022-10-16T13:12:12;1.80;;;0.50;;
25567;SDS011;13455;51.480;7.594;2022-10-16T13:17:45;2.60;;;0.50;;
25567;SDS011;13455;51.480;7.594;2022-10-16T13:23:00;2.07;;;0.40;;
25567;SDS011;13455;51.480;7.594;2022-10-16T13:28:29;2.00;;;0.40;;
25567;SDS011;13455;51.480;7.594;2022-10-16T13:30:56;2.13;;;0.50;;
25567;SDS011;13455;51.480;7.594;2022-10-16T13:35:56;1.33;;;0.40;;
25567;SDS011;13455;51.480;7.594;2022-10-16T13:38:26;2.15;;;0.40;;
25567;SDS011;13455;51.480;7.594;2022-10-16T13:40:56;2.65;;;0.50;;
25567;SDS011;13455;51.480;7.594;2022-10-16T13:45:53;2.53;;;0.50;;
25567;SDS011;13455;51.480;7.594;2022-10-16T13:48:23;3.20;;;0.60;;
25567;SDS011;13455;51.480;7.594;2022-10-16T13:50:59;2.10;;;0.50;;
25567;SDS011;13455;51.480;7.594;2022-10-16T13:53:33;2.90;;;0.50;;
25567;SDS011;13455;51.480;7.594;2022-10-16T13:55:59;3.10;;;0.50;;
25567;SDS011;13455;51.480;7.594;2022-10-16T13:58:28;2.78;;;0.50;;
25567;SDS011;13455;51.480;7.594;2022-10-16T14:03:27;3.58;;;0.50;;
25567;SDS011;13455;51.480;7.594;2022-10-16T14:06:03;1.20;;;0.40;;
25567;SDS011;13455;51.480;7.594;2022-10-16T14:08:33;2.50;;;0.50;;
25567;SDS011;13455;51.480;7.594;2022-10-16T14:11:00;1.80;;;0.40;;
25567;SDS011;13455;51.480;7.594;2022-10-16T14:13:31;2.53;;;0.60;;
25567;SDS011;13455;51.480;7.594;2022-10-16T14:16:06;1.90;;;0.40;;
25567;SDS011;13455;51.480;7.594;2022-10-16T14:18:35;1.48;;;0.45;;
25567;SDS011;13455;51.480;7.594;2022-10-16T14:21:07;1.25;;;0.50;;
25567;SDS011;13455;51.480;7.594;2022-10-16T14:23:37;1.83;;;0.40;;
25567;SDS011;13455;51.480;7.594;2022-10-16T14:28:34;2.45;;;0.60;;
25567;SDS011;13455;51.480;7.594;2022-10-16T14:31:00;2.42;;;0.60;;
25567;SDS011;13455;51.480;7.594;2022-10-16T14:36:11;3.87;;;0.77;;
25567;SDS011;13455;51.480;7.594;2022-10-16T14:38:39;3.22;;;0.60;;
25567;SDS011;13455;51.480;7.594;2022-10-16T14:41:06;2.63;;;0.50;;
25567;SDS011;13455;51.480;7.594;2022-10-16T14:43:42;3.58;;;0.60;;
25567;SDS011;13455;51.480;7.594;2022-10-16T14:46:18;3.00;;;0.70;;
25567;SDS011;13455;51.480;7.594;2022-10-16T14:48:46;2.50;;;0.70;;
25567;SDS011;13455;51.480;7.594;2022-10-16T14:51:17;2.28;;;0.60;;
25567;SDS011;13455;51.480;7.594;2022-10-16T14:53:45;3.58;;;0.70;;
25567;SDS011;13455;51.480;7.594;2022-10-16T14:56:18;1.92;;;0.60;;
25567;SDS011;13455;51.480;7.594;2022-10-16T14:58:46;3.08;;;0.70;;
25567;SDS011;13455;51.480;7.594;2022-10-16T15:01:12;3.08;;;0.57;;
25567;SDS011;13455;51.480;7.594;2022-10-16T15:03:38;1.85;;;0.60;;
25567;SDS011;13455;51.480;7.594;2022-10-16T15:06:08;2.05;;;0.60;;
25567;SDS011;13455;51.480;7.594;2022-10-16T15:08:36;2.93;;;0.70;;
25567;SDS011;13455;51.480;7.594;2022-10-16T15:11:02;3.90;;;0.63;;
25567;SDS011;13455;51.480;7.594;2022-10-16T15:13:28;3.23;;;0.70;;
25567;SDS011;13455;51.480;7.594;2022-10-16T15:15:53;1.85;;;0.60;;
25567;SDS011;13455;51.480;7.594;2022-10-16T15:18:19;2.83;;;0.60;;
25567;SDS011;13455;51.480;7.594;2022-10-16T15:20:48;2.05;;;0.60;;
25567;SDS011;13455;51.480;7.594;2022-10-16T15:23:15;2.70;;;0.70;;
25567;SDS011;13455;51.480;7.594;2022-10-16T15:25:47;3.67;;;0.63;;
25567;SDS011;13455;51.480;7.594;2022-10-16T15:28:14;1.20;;;0.50;;
25567;SDS011;13455;51.480;7.594;2022-10-16T15:30:41;2.45;;;0.70;;
25567;SDS011;13455;51.480;7.594;2022-10-16T15:33:26;5.85;;;1.00;;
25567;SDS011;13455;51.480;7.594;2022-10-16T15:35:57;3.43;;;0.60;;
25567;SDS011;13455;51.480;7.594;2022-10-16T15:38:23;3.05;;;0.80;;
25567;SDS011;13455;51.480;7.594;2022-10-16T15:40:50;3.03;;;0.80;;
25567;SDS011;13455;51.480;7.594;2022-10-16T15:43:17;3.55;;;0.90;;
25567;SDS011;13455;51.480;7.594;2022-10-16T15:45:43;2.40;;;0.70;;
25567;SDS011;13455;51.480;7.594;2022-10-16T15:48:12;2.58;;;0.80;;
25567;SDS011;13455;51.480;7.594;2022-10-16T15:50:39;2.42;;;0.77;;
25567;SDS011;13455;51.480;7.594;2022-10-16T15:53:05;3.88;;;1.00;;
25567;SDS011;13455;51.480;7.594;2022-10-16T15:55:31;3.67;;;1.00;;
25567;SDS011;13455;51.480;7.594;2022-10-16T15:57:59;3.00;;;0.93;;
25567;SDS011;13455;51.480;7.594;2022-10-16T16:00:24;4.77;;;0.97;;
25567;SDS011;13455;51.480;7.594;2022-10-16T16:02:51;3.30;;;1.20;;
25567;SDS011;13455;51.480;7.594;2022-10-16T16:05:18;2.95;;;1.23;;
25567;SDS011;13455;51.480;7.594;2022-10-16T16:07:44;2.97;;;1.10;;
25567;SDS011;13455;51.480;7.594;2022-10-16T16:10:10;3.45;;;0.98;;
25567;SDS011;13455;51.480;7.594;2022-10-16T16:12:37;2.20;;;0.80;;
25567;SDS011;13455;51.480;7.594;2022-10-16T16:15:06;3.88;;;0.90;;
25567;SDS011;13455;51.480;7.594;2022-10-16T16:17:33;1.77;;;0.82;;
25567;SDS011;13455;51.480;7.594;2022-10-16T16:19:59;3.75;;;0.82;;
25567;SDS011;13455;51.480;7.594;2022-10-16T16:22:25;4.45;;;0.80;;
25567;SDS011;13455;51.480;7.594;2022-10-16T16:24:51;2.20;;;0.80;;
25567;SDS011;13455;51.480;7.594;2022-10-16T16:27:17;3.25;;;0.70;;
25567;SDS011;13455;51.480;7.594;2022-10-16T16:29:44;1.92;;;0.70;;
25567;SDS011;13455;51.480;7.594;2022-10-16T16:32:10;2.90;;;0.80;;
25567;SDS011;13455;51.480;7.594;2022-10-16T16:34:36;2.65;;;0.80;;
25567;SDS011;13455;51.480;7.594;2022-10-16T16:37:02;3.95;;;0.73;;
25567;SDS011;13455;51.480;7.594;2022-10-16T16:39:28;3.03;;;0.80;;
25567;SDS011;13455;51.480;7.594;2022-10-16T16:41:57;1.27;;;0.70;;
25567;SDS011;13455;51.480;7.594;2022-10-16T16:44:23;2.03;;;0.90;;
25567;SDS011;13455;51.480;7.594;2022-10-16T16:46:49;2.80;;;1.07;;
25567;SDS011;13455;51.480;7.594;2022-10-16T16:49:16;2.70;;;1.10;;
25567;SDS011;13455;51.480;7.594;2022-10-16T16:51:42;3.28;;;0.95;;
25567;SDS011;13455;51.480;7.594;2022-10-16T16:54:09;2.83;;;0.90;;
25567;SDS011;13455;51.480;7.594;2022-10-16T16:56:36;3.15;;;0.88;;
25567;SDS011;13455;51.480;7.594;2022-10-16T16:59:02;2.70;;;0.80;;
25567;SDS011;13455;51.480;7.594;2022-10-16T17:01:28;3.50;;;0.90;;
25567;SDS011;13455;51.480;7.594;2022-10-16T17:03:56;2.72;;;0.80;;
25567;SDS011;13455;51.480;7.594;2022-10-16T17:06:23;2.20;;;0.90;;
25567;SDS011;13455;51.480;7.594;2022-10-16T17:08:49;2.70;;;0.90;;